Time;durP1;ratioP1;P1;durP2;ratioP2;P2;SDS_P1;SDS_P2;PMS_P1;PMS_P2;Temp;Humidity;BMP_temperature;BMP_pressure;BME280_temperature;BME280_humidity;BME280_pressure;Samples;Min_cycle;Max_cycle;Signal;HPM_P1;HPM_P2
2022/03/30 00:01:37;;;;;;;;;;;;;;;;;;;;;
2022/03/30 00:08:49;;;;;;;;;;;;;;;;;;;;;
2022/03/30 00:16:35;;;;;;;;;;;;;;;;;;;;;
2022/03/30 00:41:39;;;;;;;;;;;;;;;;;;;;;
2022/03/30 00:52:46;;;;;;;;;;;;;;;;;;;;;
2022/03/30 00:56:34;;;;;;;;;;;;;;;;;;;;;
2022/03/30 01:00:25;;;;;;;;;;;;;;;;;;;;;
2022/03/30 01:08:45;;;;;;;;;;;;;;;;;;;;;
2022/03/30 01:12:53;;;;;;;;;;;;;;;;;;;;;
2022/03/30 01:20:33;;;;;;;16.80;12.20;;;13.80;89.90;;;;;;4970542;28;20426;-96
2022/03/30 01:49:21;;;;;;;;;;;;;;;;;;;;;
2022/03/30 02:06:21;;;;;;;;;;;;;;;;;;;;;
2022/03/30 02:14:43;;;;;;;;;;;;;;;;;;;;;
2022/03/30 02:21:51;;;;;;;;;;;;;;;;;;;;;
2022/03/30 02:24:55;;;;;;;17.37;12.37;;;13.60;90.10;;;;;;4934471;29;20473;-95
2022/03/30 02:28:09;;;;;;;19.20;12.10;;;13.60;90.10;;;;;;4903105;29;20910;-96
2022/03/30 02:38:46;;;;;;;;;;;;;;;;;;;;;
2022/03/30 02:54:01;;;;;;;;;;;;;;;;;;;;;
2022/03/30 02:57:47;;;;;;;;;;;;;;;;;;;;;
2022/03/30 03:01:23;;;;;;;20.67;12.00;;;13.50;90.10;;;;;;5043292;28;20990;-94
2022/03/30 03:12:42;;;;;;;;;;;;;;;;;;;;;
2022/03/30 03:28:42;;;;;;;;;;;;;;;;;;;;;
2022/03/30 03:32:41;;;;;;;22.47;12.33;;;13.40;90.20;;;;;;4963609;28;20424;-95
2022/03/30 03:36:12;;;;;;;20.50;13.03;;;13.40;90.30;;;;;;4975999;28;20504;-95
2022/03/30 03:47:49;;;;;;;;;;;;;;;;;;;;;
2022/03/30 03:51:53;;;;;;;;;;;;;;;;;;;;;
2022/03/30 03:55:39;;;;;;;;;;;;;;;;;;;;;
2022/03/30 03:59:01;;;;;;;20.70;12.67;;;13.30;90.30;;;;;;5000240;28;20434;-96
2022/03/30 04:06:06;;;;;;;26.23;13.67;;;13.30;90.40;;;;;;4983060;28;20435;-94
2022/03/30 04:08:57;;;;;;;20.37;12.60;;;13.30;90.40;;;;;;5021430;28;20450;-93
2022/03/30 04:11:34;;;;;;;19.57;13.67;;;13.20;90.40;;;;;;5021412;28;20411;-96
2022/03/30 04:14:55;;;;;;;;;;;;;;;;;;;;;
2022/03/30 04:18:37;;;;;;;;;;;;;;;;;;;;;
2022/03/30 04:21:49;;;;;;;24.50;14.40;;;13.20;90.40;;;;;;4991889;28;20434;-95
2022/03/30 04:29:00;;;;;;;;;;;;;;;;;;;;;
2022/03/30 04:32:09;;;;;;;23.53;12.50;;;13.20;90.40;;;;;;5000090;28;20471;-96
2022/03/30 04:34:38;;;;;;;18.73;12.30;;;13.20;90.50;;;;;;5038864;28;20430;-95
2022/03/30 04:37:15;;;;;;;17.50;12.63;;;13.20;90.40;;;;;;5027056;22;20420;31
2022/03/30 04:39:42;;;;;;;24.07;12.80;;;13.10;90.40;;;;;;4984571;28;20475;-72
2022/03/30 04:42:13;;;;;;;22.77;13.80;;;13.10;90.40;;;;;;4973719;28;20527;-73
2022/03/30 04:44:39;;;;;;;26.10;13.80;;;13.10;90.40;;;;;;4979385;28;20496;-71
2022/03/30 04:47:05;;;;;;;23.40;12.50;;;13.10;90.40;;;;;;4989346;28;20466;-70
2022/03/30 04:49:31;;;;;;;22.00;13.30;;;13.10;90.40;;;;;;4973882;28;20508;-71
2022/03/30 04:52:04;;;;;;;26.67;12.77;;;13.10;90.40;;;;;;4973541;28;20436;-73
2022/03/30 04:54:30;;;;;;;20.50;12.00;;;13.10;90.40;;;;;;4973179;28;20979;-70
2022/03/30 04:57:00;;;;;;;21.60;13.50;;;13.10;90.40;;;;;;4957792;28;20789;-73
2022/03/30 04:59:26;;;;;;;28.27;13.53;;;13.10;90.40;;;;;;4956762;28;20471;-73
2022/03/30 05:01:52;;;;;;;18.53;11.77;;;13.10;90.40;;;;;;4989111;28;20718;-73
2022/03/30 05:04:18;;;;;;;20.17;11.83;;;13.10;90.40;;;;;;4973435;28;20433;-73
2022/03/30 05:06:44;;;;;;;18.80;11.90;;;13.10;90.40;;;;;;4972966;28;20829;-73
2022/03/30 05:09:13;;;;;;;21.00;13.13;;;13.00;90.40;;;;;;4973180;28;20169;-73
2022/03/30 05:11:46;;;;;;;21.63;13.00;;;13.00;90.40;;;;;;4972879;28;20423;-72
2022/03/30 05:14:17;;;;;;;21.13;11.80;;;13.00;90.40;;;;;;4972970;28;21011;-73
2022/03/30 05:16:43;;;;;;;18.70;12.00;;;13.00;90.40;;;;;;4972951;28;20457;-72
2022/03/30 05:19:10;;;;;;;20.67;12.03;;;13.00;90.40;;;;;;4973139;28;20424;-72
2022/03/30 05:21:36;;;;;;;17.67;12.67;;;13.00;90.40;;;;;;4973981;28;20434;-72
2022/03/30 05:24:06;;;;;;;18.87;11.70;;;13.00;90.50;;;;;;4973536;28;20419;-72
2022/03/30 05:26:57;;;;;;;23.33;12.73;;;13.00;90.40;;;;;;4972830;28;20815;-72
2022/03/30 05:29:24;;;;;;;18.50;12.00;;;13.00;90.50;;;;;;4956420;28;20953;-72
2022/03/30 05:32:44;;;;;;;18.87;11.77;;;13.00;90.50;;;;;;4955697;28;20425;-73
2022/03/30 05:35:13;;;;;;;16.60;11.63;;;12.90;90.40;;;;;;4971526;28;21318;-74
2022/03/30 05:37:53;;;;;;;19.07;12.03;;;12.90;90.40;;;;;;4977560;28;20979;-73
2022/03/30 05:40:30;;;;;;;19.37;11.80;;;12.90;90.50;;;;;;4987550;28;20447;-70
2022/03/30 05:42:59;;;;;;;19.73;11.33;;;12.90;90.50;;;;;;4992407;28;20516;-74
2022/03/30 05:45:26;;;;;;;20.33;12.90;;;12.90;90.50;;;;;;5008897;28;20432;-74
2022/03/30 05:47:56;;;;;;;19.50;12.60;;;12.80;90.50;;;;;;5011006;28;20453;-72
2022/03/30 05:50:23;;;;;;;21.73;11.80;;;12.90;90.60;;;;;;5007692;28;20426;-73
2022/03/30 05:52:54;;;;;;;21.23;13.30;;;12.90;90.60;;;;;;4992734;28;20476;-69
2022/03/30 05:55:27;;;;;;;17.93;12.60;;;12.90;90.60;;;;;;4996203;28;20452;-70
2022/03/30 05:57:53;;;;;;;20.80;12.10;;;12.80;90.60;;;;;;5003696;28;20432;-70
2022/03/30 06:00:22;;;;;;;17.80;11.70;;;12.80;90.60;;;;;;4993024;28;20422;-71
2022/03/30 06:02:48;;;;;;;19.27;11.50;;;12.80;90.60;;;;;;5001705;28;20418;-72
2022/03/30 06:05:17;;;;;;;18.67;11.83;;;12.80;90.60;;;;;;5003959;28;20422;-72
2022/03/30 06:07:46;;;;;;;22.10;12.87;;;12.80;90.60;;;;;;4991045;28;20417;-72
2022/03/30 06:10:42;;;;;;;20.40;11.20;;;12.80;90.60;;;;;;4988303;28;20450;-72
2022/03/30 06:13:14;;;;;;;21.00;12.27;;;12.80;90.60;;;;;;4983930;28;20478;-72
2022/03/30 06:15:47;;;;;;;18.40;11.80;;;12.80;90.70;;;;;;4983960;28;20471;-74
2022/03/30 06:18:16;;;;;;;20.23;11.60;;;12.70;90.70;;;;;;4986723;28;20453;-72
2022/03/30 06:20:44;;;;;;;21.53;12.73;;;12.70;90.70;;;;;;4987403;28;20442;-72
2022/03/30 06:23:11;;;;;;;22.33;12.03;;;12.70;90.70;;;;;;4985673;28;21537;-71
2022/03/30 06:26:05;;;;;;;19.47;11.90;;;12.70;90.70;;;;;;4970110;28;20458;-71
2022/03/30 06:28:31;;;;;;;19.97;12.23;;;12.70;90.70;;;;;;4986497;28;20420;-72
2022/03/30 06:31:03;;;;;;;19.87;12.10;;;12.70;90.70;;;;;;4988504;28;20421;-71
2022/03/30 06:33:34;;;;;;;19.50;12.83;;;12.70;90.70;;;;;;4987838;28;20514;-72
2022/03/30 06:36:05;;;;;;;23.70;13.23;;;12.60;90.70;;;;;;4986720;28;20466;-71
2022/03/30 06:38:31;;;;;;;18.97;11.53;;;12.70;90.80;;;;;;4986853;28;20467;-72
2022/03/30 06:41:02;;;;;;;20.53;11.90;;;12.60;90.70;;;;;;4988957;28;20448;-72
2022/03/30 06:43:28;;;;;;;16.73;11.50;;;12.60;90.70;;;;;;4991835;28;20500;-72
2022/03/30 06:45:57;;;;;;;21.27;12.67;;;12.60;90.70;;;;;;4987804;28;20460;-72
2022/03/30 06:48:23;;;;;;;20.90;13.17;;;12.60;90.70;;;;;;4989503;28;20445;-70
2022/03/30 06:50:49;;;;;;;19.00;12.17;;;12.60;90.80;;;;;;4988335;28;20838;-72
2022/03/30 06:53:15;;;;;;;24.50;14.50;;;12.60;90.80;;;;;;4989111;28;20743;-71
2022/03/30 06:55:41;;;;;;;23.80;12.20;;;12.60;90.70;;;;;;4986455;28;20464;-72
2022/03/30 06:58:07;;;;;;;18.70;12.20;;;12.60;90.70;;;;;;4988112;28;20509;-72
2022/03/30 07:00:39;;;;;;;22.33;13.93;;;12.60;90.70;;;;;;4970996;28;20459;-72
2022/03/30 07:03:05;;;;;;;22.97;13.03;;;12.60;90.80;;;;;;4991179;28;20544;-72
2022/03/30 07:05:34;;;;;;;17.73;11.80;;;12.50;90.70;;;;;;4985761;28;20548;-72
2022/03/30 07:10:44;;;;;;;21.70;13.10;;;12.50;90.70;;;;;;4987808;28;20517;-72
2022/03/30 07:13:23;;;;;;;18.10;13.00;;;12.50;90.70;;;;;;4986996;28;20553;-72
2022/03/30 07:15:49;;;;;;;21.20;12.97;;;12.50;90.70;;;;;;4970464;28;20814;-72
2022/03/30 07:18:15;;;;;;;20.80;12.40;;;12.50;90.80;;;;;;4989593;28;20426;-72
2022/03/30 07:20:41;;;;;;;23.87;13.70;;;12.50;90.80;;;;;;4985013;28;20477;-71
2022/03/30 07:23:10;;;;;;;21.60;11.90;;;12.50;90.80;;;;;;4990362;28;20450;-72
2022/03/30 07:25:37;;;;;;;27.87;16.53;;;12.50;90.70;;;;;;4987444;28;20457;-71
2022/03/30 07:28:04;;;;;;;25.07;13.77;;;12.50;90.70;;;;;;4988343;28;20436;-71
2022/03/30 07:30:32;;;;;;;24.40;15.10;;;12.50;90.50;;;;;;4986485;28;20456;-72
2022/03/30 07:33:03;;;;;;;29.20;15.20;;;12.50;90.40;;;;;;4986497;28;21023;-72
2022/03/30 07:35:33;;;;;;;22.33;13.67;;;12.50;90.70;;;;;;4995608;28;20438;-69
2022/03/30 07:38:00;;;;;;;23.20;14.43;;;12.50;90.40;;;;;;4987466;28;20440;-70
2022/03/30 07:41:17;;;;;;;27.50;14.27;;;12.40;90.40;;;;;;5009611;28;20950;-69
2022/03/30 07:44:37;;;;;;;24.93;14.77;;;12.40;90.40;;;;;;4993021;28;20448;-70
2022/03/30 07:47:29;;;;;;;26.87;13.13;;;12.40;90.40;;;;;;5006694;28;20526;-69
2022/03/30 07:49:56;;;;;;;20.63;14.00;;;12.40;90.50;;;;;;5004701;28;20435;-69
2022/03/30 07:53:16;;;;;;;25.70;13.90;;;12.40;90.50;;;;;;4968597;28;20511;-69
2022/03/30 07:56:38;;;;;;;22.57;12.90;;;12.40;90.50;;;;;;5000768;28;20463;-69
2022/03/30 08:00:21;;;;;;;24.77;14.20;;;12.40;90.50;;;;;;4987031;28;20438;-71
2022/03/30 08:03:38;;;;;;;25.30;13.10;;;12.40;90.50;;;;;;4974181;28;20434;-69
2022/03/30 08:35:05;;;;;;;24.07;12.67;;;12.30;90.50;;;;;;4989321;28;20436;-71
2022/03/30 08:38:21;;;;;;;19.80;12.30;;;12.30;90.50;;;;;;4990300;28;20464;-73
2022/03/30 09:20:26;;;;;;;19.60;11.57;;;12.50;90.50;;;;;;4990294;28;20625;-71
2022/03/30 09:23:42;;;;;;;23.33;11.00;;;12.50;90.40;;;;;;4988205;28;20436;-71
2022/03/30 09:27:25;;;;;;;19.47;10.50;;;12.50;90.40;;;;;;4984451;28;20848;-71
2022/03/30 09:31:07;;;;;;;19.17;11.40;;;12.50;90.40;;;;;;5000936;28;21001;-70
2022/03/30 09:34:50;;;;;;;15.50;10.03;;;12.50;90.40;;;;;;4982116;28;20575;-70
2022/03/30 09:38:10;;;;;;;20.50;11.27;;;12.60;90.40;;;;;;4983917;28;20471;-71
2022/03/30 09:41:30;;;;;;;19.10;11.13;;;12.60;90.30;;;;;;4984755;28;20446;-71
2022/03/30 09:44:48;;;;;;;18.23;11.33;;;12.60;90.30;;;;;;4987708;28;20855;-71
2022/03/30 09:47:40;;;;;;;16.07;10.60;;;12.70;90.30;;;;;;4990390;28;20886;-71
2022/03/30 09:50:09;;;;;;;20.60;11.70;;;12.70;90.20;;;;;;4989617;28;20830;-71
2022/03/30 09:52:35;;;;;;;18.17;11.50;;;12.70;90.20;;;;;;4993627;28;20831;-72
2022/03/30 09:55:05;;;;;;;19.20;11.07;;;12.70;90.20;;;;;;4986830;28;20462;-72
2022/03/30 09:58:23;;;;;;;17.07;10.30;;;12.70;90.20;;;;;;4987870;28;20443;-72
2022/03/30 10:01:42;;;;;;;13.53;8.70;;;12.80;90.20;;;;;;4988642;28;20481;-73
2022/03/30 10:05:25;;;;;;;14.50;10.20;;;12.80;90.10;;;;;;4996164;28;20458;-73
2022/03/30 10:08:19;;;;;;;18.23;10.67;;;12.90;90.10;;;;;;4999818;28;20459;-69
2022/03/30 10:10:45;;;;;;;13.23;9.17;;;12.90;90.00;;;;;;4987378;28;20446;-69
2022/03/30 10:14:08;;;;;;;14.87;9.23;;;12.90;90.10;;;;;;4995056;28;21016;-69
2022/03/30 10:17:25;;;;;;;12.10;8.30;;;13.00;90.00;;;;;;5003215;28;20458;-70
2022/03/30 10:20:43;;;;;;;15.67;9.40;;;13.00;90.00;;;;;;4989826;28;20431;-69
2022/03/30 10:24:01;;;;;;;14.50;8.43;;;13.00;89.90;;;;;;4986083;28;20521;-69
2022/03/30 10:27:26;;;;;;;14.57;8.63;;;13.00;89.80;;;;;;4987064;28;20458;-72
2022/03/30 10:30:00;;;;;;;15.07;8.70;;;13.10;89.90;;;;;;4991922;28;20442;-71
2022/03/30 10:32:36;;;;;;;11.90;8.33;;;13.10;90.00;;;;;;4994406;28;20553;-71
2022/03/30 10:35:12;;;;;;;15.13;9.27;;;13.10;89.70;;;;;;4990284;28;21016;-71
2022/03/30 10:41:48;;;;;;;17.70;8.47;;;13.20;89.50;;;;;;4992915;28;20410;-71
2022/03/30 10:48:47;;;;;;;14.97;8.90;;;13.30;89.40;;;;;;5000989;28;20496;-71
2022/03/30 10:52:04;;;;;;;13.00;7.73;;;13.30;89.20;;;;;;4972555;28;20451;-71
2022/03/30 10:55:46;;;;;;;13.87;7.70;;;13.30;89.10;;;;;;4989826;28;20497;-71
2022/03/30 10:59:28;;;;;;;11.93;7.47;;;13.40;89.20;;;;;;5002657;28;20459;-71
2022/03/30 11:02:45;;;;;;;15.43;8.40;;;13.40;89.20;;;;;;4985866;28;20469;-71
2022/03/30 11:06:09;;;;;;;10.20;7.23;;;13.40;89.10;;;;;;4986335;28;20433;-71
2022/03/30 11:09:51;;;;;;;14.70;7.50;;;13.50;89.20;;;;;;4997721;28;20648;-71
2022/03/30 11:13:12;;;;;;;14.33;7.70;;;13.50;89.10;;;;;;4989101;28;20465;-71
2022/03/30 11:19:13;;;;;;;9.67;6.70;;;13.60;89.10;;;;;;4986300;28;20425;-71
2022/03/30 11:22:12;;;;;;;14.97;7.60;;;13.70;89.10;;;;;;4970659;28;20428;-71
2022/03/30 11:25:03;;;;;;;10.33;7.43;;;13.70;89.10;;;;;;4987489;28;20480;-71
2022/03/30 11:27:30;;;;;;;10.57;7.97;;;13.70;88.90;;;;;;4972825;28;20520;-71
2022/03/30 11:30:49;;;;;;;11.40;7.90;;;13.80;89.00;;;;;;4987464;28;20433;-71
2022/03/30 11:34:26;;;;;;;10.93;6.80;;;13.80;88.70;;;;;;5002932;28;20451;-71
2022/03/30 11:37:00;;;;;;;11.23;7.50;;;13.90;88.60;;;;;;4991173;28;20460;-72
2022/03/30 11:40:17;;;;;;;13.50;7.80;;;13.90;88.50;;;;;;4992153;28;20440;-71
2022/03/30 11:43:10;;;;;;;10.77;7.50;;;13.90;88.40;;;;;;4995652;28;20456;-70
2022/03/30 11:45:37;;;;;;;17.33;7.37;;;13.90;88.20;;;;;;4997331;28;20525;-70
2022/03/30 11:48:39;;;;;;;10.30;7.50;;;14.00;88.40;;;;;;5005818;28;20415;-71
2022/03/30 11:54:50;;;;;;;7.87;6.13;;;14.10;88.10;;;;;;4995399;28;20437;-71
2022/03/30 11:57:42;;;;;;;14.10;7.70;;;14.10;88.00;;;;;;4991162;28;20459;-71
2022/03/30 12:00:11;;;;;;;14.20;7.27;;;14.10;88.10;;;;;;4990259;28;20450;-71
2022/03/30 12:02:44;;;;;;;11.00;7.17;;;14.20;88.00;;;;;;5008307;28;20464;-71
2022/03/30 12:05:12;;;;;;;10.00;7.60;;;14.20;87.80;;;;;;4995273;28;20443;-71
2022/03/30 12:07:42;;;;;;;12.20;7.43;;;14.30;87.80;;;;;;4990699;28;21032;-71
2022/03/30 12:10:59;;;;;;;11.40;7.70;;;14.30;87.70;;;;;;4996709;28;20431;-71
2022/03/30 12:13:29;;;;;;;13.17;7.80;;;14.30;87.50;;;;;;4989676;28;20983;-71
2022/03/30 12:16:06;;;;;;;10.57;7.07;;;14.30;87.40;;;;;;4976516;28;20452;-71
2022/03/30 12:18:50;;;;;;;10.97;7.07;;;14.40;87.50;;;;;;4990451;28;20435;-71
2022/03/30 12:21:20;;;;;;;10.00;6.93;;;14.40;87.40;;;;;;4990472;28;20464;-71
2022/03/30 12:23:53;;;;;;;10.27;7.23;;;14.40;87.40;;;;;;4975457;28;20473;-71
2022/03/30 12:26:19;;;;;;;7.70;6.50;;;14.40;87.30;;;;;;4988057;28;20491;-71
2022/03/30 12:28:45;;;;;;;8.80;6.43;;;14.40;87.10;;;;;;5010896;28;20477;-71
2022/03/30 12:31:13;;;;;;;10.80;7.67;;;14.50;87.10;;;;;;4989754;28;20452;-71
2022/03/30 12:34:15;;;;;;;12.37;7.70;;;14.50;87.10;;;;;;4990466;28;20214;-71
2022/03/30 12:36:43;;;;;;;9.80;7.30;;;14.50;86.80;;;;;;4991233;28;20447;-71
2022/03/30 12:39:22;;;;;;;9.37;7.20;;;14.50;86.50;;;;;;4991502;28;20475;-71
2022/03/30 12:41:57;;;;;;;9.93;7.23;;;14.50;86.50;;;;;;4990136;28;20430;-71
2022/03/30 12:44:35;;;;;;;11.20;6.40;;;14.60;86.50;;;;;;4978011;28;20451;-70
2022/03/30 12:47:04;;;;;;;12.10;7.73;;;14.60;86.50;;;;;;5028186;22;20505;-92
2022/03/30 12:49:42;;;;;;;11.23;7.90;;;14.60;86.50;;;;;;5036904;28;20421;-93
2022/03/30 12:52:17;;;;;;;9.80;7.30;;;14.60;86.40;;;;;;5019899;28;20443;-92
2022/03/30 12:54:45;;;;;;;11.13;8.10;;;14.70;86.40;;;;;;5002936;28;20447;-91
2022/03/30 12:57:30;;;;;;;13.10;7.50;;;14.70;86.40;;;;;;5027805;28;20775;-92
2022/03/30 13:00:17;;;;;;;10.63;7.10;;;14.70;86.30;;;;;;5019906;28;20433;-92
2022/03/30 13:02:47;;;;;;;12.10;8.13;;;14.70;86.20;;;;;;5020344;28;20445;-90
2022/03/30 13:05:24;;;;;;;12.23;7.60;;;14.80;87.00;;;;;;5036314;28;20490;-91
2022/03/30 13:07:55;;;;;;;9.60;7.23;;;14.80;86.00;;;;;;5012980;28;20424;-89
2022/03/30 13:10:23;;;;;;;8.40;7.37;;;14.80;86.00;;;;;;5019686;28;20940;-91
2022/03/30 13:12:55;;;;;;;11.13;7.93;;;14.80;85.90;;;;;;5035893;28;20539;-91
2022/03/30 13:15:24;;;;;;;10.63;7.60;;;14.90;86.00;;;;;;5036547;28;20685;-91
2022/03/30 13:17:57;;;;;;;12.23;7.73;;;14.90;85.80;;;;;;5019537;28;20440;-92
2022/03/30 13:20:27;;;;;;;20.40;8.83;;;14.90;85.70;;;;;;5017093;28;20500;-90
2022/03/30 13:22:58;;;;;;;15.43;9.17;;;14.90;85.60;;;;;;5008326;28;20479;-92
2022/03/30 13:25:25;;;;;;;10.50;8.50;;;15.00;85.70;;;;;;5019705;28;20449;-92
2022/03/30 13:27:54;;;;;;;12.67;8.97;;;15.00;85.60;;;;;;5036424;28;20428;-92
2022/03/30 13:30:21;;;;;;;14.53;8.23;;;15.00;85.60;;;;;;5016733;28;20542;-92
2022/03/30 13:32:50;;;;;;;10.67;7.87;;;15.00;85.50;;;;;;5036626;28;20486;-93
2022/03/30 13:35:16;;;;;;;10.70;7.90;;;15.10;85.60;;;;;;5019439;28;20526;-93
2022/03/30 13:37:44;;;;;;;11.40;8.27;;;15.10;85.50;;;;;;5035949;28;20473;-92
2022/03/30 13:40:11;;;;;;;12.23;8.83;;;15.10;85.40;;;;;;5035882;28;20831;-91
2022/03/30 13:42:40;;;;;;;10.97;8.33;;;15.10;85.30;;;;;;5043067;28;20905;-91
2022/03/30 13:45:06;;;;;;;10.30;8.20;;;15.20;85.20;;;;;;5003374;28;20445;-92
2022/03/30 13:47:32;;;;;;;11.00;8.90;;;15.20;85.10;;;;;;5041597;28;20522;-92
2022/03/30 13:49:59;;;;;;;11.70;8.30;;;15.20;85.00;;;;;;5018753;28;20530;-91
2022/03/30 13:52:25;;;;;;;12.30;8.00;;;15.20;84.90;;;;;;5002568;28;20488;-92
2022/03/30 13:54:51;;;;;;;12.03;8.97;;;15.30;85.00;;;;;;5000292;28;20433;-92
2022/03/30 13:57:20;;;;;;;11.83;8.10;;;15.30;85.00;;;;;;5003919;28;20458;-90
2022/03/30 13:59:46;;;;;;;9.40;8.40;;;15.30;84.80;;;;;;5024450;28;20426;-90
2022/03/30 14:02:12;;;;;;;10.03;8.70;;;15.30;84.80;;;;;;5018848;28;20428;-91
2022/03/30 14:04:38;;;;;;;9.33;7.77;;;15.30;84.70;;;;;;5035395;28;20426;-93
2022/03/30 14:07:04;;;;;;;9.97;8.27;;;15.40;84.60;;;;;;5035898;28;20564;-89
2022/03/30 14:09:31;;;;;;;12.47;8.97;;;15.40;84.60;;;;;;5035064;28;20484;-94
2022/03/30 14:12:03;;;;;;;9.50;8.00;;;15.40;84.60;;;;;;5002067;28;20928;-93
2022/03/30 14:14:29;;;;;;;10.60;8.17;;;15.40;84.50;;;;;;5011520;28;20436;-94
2022/03/30 14:16:56;;;;;;;12.50;9.70;;;15.50;85.30;;;;;;5035066;28;20435;-94
2022/03/30 14:19:22;;;;;;;11.47;8.50;;;15.50;84.40;;;;;;5018805;28;20423;-95
2022/03/30 14:21:48;;;;;;;10.33;9.27;;;15.50;84.30;;;;;;5019675;28;20438;-95
2022/03/30 14:24:15;;;;;;;10.30;8.10;;;15.50;84.20;;;;;;5002592;28;20529;-95
2022/03/30 14:26:41;;;;;;;20.90;8.63;;;15.50;84.10;;;;;;5035025;28;20418;-94
2022/03/30 14:29:07;;;;;;;11.43;8.60;;;15.60;83.90;;;;;;5018451;28;20448;-95
2022/03/30 14:31:36;;;;;;;11.23;9.03;;;15.60;83.60;;;;;;5018921;28;20481;-94
2022/03/30 14:34:02;;;;;;;11.30;9.40;;;15.60;83.50;;;;;;5018056;28;20545;-93
2022/03/30 14:36:28;;;;;;;12.57;8.80;;;15.60;83.30;;;;;;5019104;28;20439;-91
2022/03/30 14:38:54;;;;;;;9.97;8.70;;;15.60;83.30;;;;;;5035652;28;20466;-93
2022/03/30 14:41:20;;;;;;;11.20;9.70;;;15.70;83.40;;;;;;5008534;28;20446;-92
2022/03/30 14:43:49;;;;;;;11.93;8.50;;;15.60;83.20;;;;;;5035322;28;20510;-93
2022/03/30 14:46:18;;;;;;;10.60;9.37;;;15.70;83.40;;;;;;5003016;28;20537;-92
2022/03/30 14:48:44;;;;;;;10.70;8.30;;;15.70;83.40;;;;;;5002476;28;20508;-92
2022/03/30 14:51:10;;;;;;;8.50;7.60;;;15.70;83.30;;;;;;5002689;28;20430;-92
2022/03/30 14:53:37;;;;;;;9.90;8.60;;;15.70;83.20;;;;;;5018710;28;20473;-93
2022/03/30 14:56:04;;;;;;;13.73;8.30;;;15.70;83.10;;;;;;5018664;28;20423;-92
2022/03/30 14:58:30;;;;;;;10.80;7.80;;;15.80;83.00;;;;;;5002832;28;20455;-93
2022/03/30 15:01:06;;;;;;;9.53;8.50;;;15.80;83.00;;;;;;5002898;28;20470;-95
2022/03/30 15:03:34;;;;;;;12.13;9.07;;;15.80;83.00;;;;;;5018420;28;20745;-93
2022/03/30 15:06:00;;;;;;;13.00;9.50;;;15.80;83.00;;;;;;5018923;28;20517;-93
2022/03/30 15:08:26;;;;;;;9.00;8.00;;;15.80;83.00;;;;;;5018681;28;20441;-92
2022/03/30 15:10:52;;;;;;;10.67;8.30;;;15.80;82.70;;;;;;5018532;28;20492;-93
2022/03/30 15:13:19;;;;;;;14.10;8.37;;;15.80;82.50;;;;;;5001786;28;20508;-91
2022/03/30 15:15:45;;;;;;;11.20;9.03;;;15.80;82.60;;;;;;5002365;28;20439;-94
2022/03/30 15:18:12;;;;;;;12.43;8.77;;;15.90;82.60;;;;;;5002683;28;20772;-93
2022/03/30 15:20:38;;;;;;;15.30;8.87;;;15.90;82.50;;;;;;5035532;28;20509;-92
2022/03/30 15:23:07;;;;;;;11.40;8.77;;;15.90;82.50;;;;;;5002219;28;20442;-93
2022/03/30 15:25:34;;;;;;;9.60;8.60;;;15.90;82.40;;;;;;5002151;28;20452;-93
2022/03/30 15:28:00;;;;;;;10.73;8.90;;;15.90;82.30;;;;;;5002265;28;20464;-93
2022/03/30 15:30:28;;;;;;;9.63;7.37;;;15.90;82.00;;;;;;4998851;28;20446;-90
2022/03/30 15:32:54;;;;;;;8.80;7.67;;;15.90;81.80;;;;;;5017892;28;20502;-94
2022/03/30 15:35:21;;;;;;;9.17;8.27;;;15.90;81.90;;;;;;5018745;28;20421;-93
2022/03/30 15:37:47;;;;;;;10.13;8.20;;;15.90;81.80;;;;;;5018683;28;20433;-92
2022/03/30 15:40:14;;;;;;;11.50;8.07;;;15.90;81.80;;;;;;5033989;28;20491;-90
2022/03/30 15:42:41;;;;;;;9.77;8.07;;;15.90;81.80;;;;;;5017828;28;20434;-92
2022/03/30 15:45:10;;;;;;;9.57;8.40;;;15.90;81.80;;;;;;5017811;28;20443;-93
2022/03/30 15:47:42;;;;;;;10.50;8.97;;;15.90;81.80;;;;;;5020099;28;20451;-92
2022/03/30 15:50:08;;;;;;;13.17;9.77;;;15.80;81.60;;;;;;5000932;28;20477;-92
2022/03/30 15:52:34;;;;;;;10.80;8.70;;;15.90;81.40;;;;;;5017126;28;20548;-93
2022/03/30 15:55:00;;;;;;;10.03;9.00;;;15.90;81.10;;;;;;5017383;28;20441;-93
2022/03/30 15:57:27;;;;;;;11.40;8.93;;;15.80;80.80;;;;;;5017969;28;20462;-90
2022/03/30 15:59:53;;;;;;;10.63;8.53;;;15.90;80.80;;;;;;5015567;28;20440;-92
2022/03/30 16:02:20;;;;;;;10.73;9.07;;;15.90;80.90;;;;;;5033991;28;20433;-92
2022/03/30 16:04:46;;;;;;;13.50;9.10;;;15.90;81.00;;;;;;4998301;28;20437;-92
2022/03/30 16:07:12;;;;;;;9.13;7.80;;;15.90;81.00;;;;;;5035776;28;20535;-91
2022/03/30 16:09:38;;;;;;;9.20;8.30;;;15.90;81.00;;;;;;5039149;28;20994;-95
2022/03/30 16:12:09;;;;;;;10.50;8.37;;;15.90;81.00;;;;;;5038306;28;20478;-94
2022/03/30 16:14:38;;;;;;;11.07;8.63;;;15.90;81.10;;;;;;5017340;28;20841;-92
2022/03/30 16:17:07;;;;;;;11.10;8.33;;;15.90;81.10;;;;;;5033362;28;20439;-90
2022/03/30 16:19:34;;;;;;;9.20;7.87;;;15.90;80.90;;;;;;5002057;28;20449;-95
2022/03/30 16:22:01;;;;;;;10.90;8.00;;;15.90;80.90;;;;;;5038366;28;20745;-93
2022/03/30 16:24:29;;;;;;;9.50;8.50;;;15.90;81.00;;;;;;5027632;28;20426;-96
2022/03/30 16:26:57;;;;;;;8.80;7.40;;;15.90;81.10;;;;;;5005191;28;20847;-95
2022/03/30 16:29:30;;;;;;;9.07;8.13;;;15.90;81.20;;;;;;5021741;28;20403;-95
2022/03/30 16:32:10;;;;;;;8.80;7.67;;;15.90;81.30;;;;;;5021897;28;20418;-94
2022/03/30 16:34:49;;;;;;;10.13;7.90;;;15.90;81.10;;;;;;5041920;28;20424;-96
2022/03/30 16:37:15;;;;;;;8.83;7.50;;;15.90;81.10;;;;;;5040918;28;20427;-95
2022/03/30 16:39:41;;;;;;;11.77;7.87;;;15.80;81.70;;;;;;5024214;28;20433;-95
2022/03/30 16:42:08;;;;;;;10.47;8.30;;;15.80;80.70;;;;;;5024472;28;20426;-95
2022/03/30 16:44:39;;;;;;;9.17;7.27;;;15.80;80.60;;;;;;5025382;28;21064;-94
2022/03/30 16:47:05;;;;;;;9.53;7.77;;;15.80;80.60;;;;;;5040338;28;20466;-90
2022/03/30 16:49:31;;;;;;;11.13;8.00;;;15.80;80.70;;;;;;5056899;28;20420;-93
2022/03/30 16:52:00;;;;;;;8.77;7.50;;;15.80;80.60;;;;;;5040139;28;20441;-91
2022/03/30 16:54:28;;;;;;;9.13;7.53;;;15.80;80.50;;;;;;5040752;28;20483;-93
2022/03/30 16:56:54;;;;;;;11.73;7.80;;;15.80;80.30;;;;;;5041666;28;20426;-94
2022/03/30 16:59:26;;;;;;;8.97;7.93;;;15.80;80.30;;;;;;5042209;28;20503;-95
2022/03/30 17:01:51;;;;;;;14.83;7.83;;;15.70;80.30;;;;;;5045261;28;20450;-89
2022/03/30 17:04:18;;;;;;;11.00;7.30;;;15.80;80.50;;;;;;5021175;28;20521;-93
2022/03/30 17:06:45;;;;;;;8.37;6.80;;;15.70;80.30;;;;;;5006486;28;20484;-93
2022/03/30 17:11:56;;;;;;;11.77;7.50;;;15.70;80.30;;;;;;5022083;28;20720;-91
2022/03/30 17:14:23;;;;;;;12.00;7.37;;;15.70;80.20;;;;;;5050161;28;20510;-94
2022/03/30 17:16:49;;;;;;;9.33;7.17;;;15.70;80.20;;;;;;5011566;28;20462;-90
2022/03/30 17:19:17;;;;;;;11.73;6.90;;;15.70;80.30;;;;;;5035508;28;20738;-89
2022/03/30 17:21:47;;;;;;;9.97;7.63;;;15.70;80.20;;;;;;5041601;28;20421;-90
2022/03/30 17:24:19;;;;;;;10.80;7.30;;;15.70;80.20;;;;;;5053133;28;20515;-90
2022/03/30 17:26:49;;;;;;;10.33;7.73;;;15.70;80.90;;;;;;5020690;28;20491;-89
2022/03/30 17:29:15;;;;;;;8.80;7.90;;;15.70;80.00;;;;;;5000730;28;20458;-91
2022/03/30 17:31:43;;;;;;;10.70;8.37;;;15.70;79.90;;;;;;5016491;28;20444;-92
2022/03/30 17:34:12;;;;;;;9.50;7.13;;;15.60;79.80;;;;;;5003971;28;20563;-90
2022/03/30 17:36:41;;;;;;;8.50;6.93;;;15.60;79.90;;;;;;5043328;28;20406;-86
2022/03/30 17:39:10;;;;;;;8.10;6.37;;;15.60;79.90;;;;;;5039111;28;20423;-90
2022/03/30 17:41:37;;;;;;;10.63;7.13;;;15.60;79.70;;;;;;5039354;28;20450;-91
2022/03/30 17:44:08;;;;;;;8.87;6.80;;;15.60;79.50;;;;;;5023107;28;20453;-90
2022/03/30 17:46:38;;;;;;;9.53;6.90;;;15.60;79.30;;;;;;5028717;28;20766;-89
2022/03/30 17:51:54;;;;;;;9.20;5.93;;;15.60;79.50;;;;;;5019702;28;20426;-90
2022/03/30 17:54:32;;;;;;;7.07;6.10;;;15.50;79.50;;;;;;5014017;28;20545;-91
2022/03/30 17:57:05;;;;;;;9.43;6.07;;;15.50;79.60;;;;;;5056117;28;20412;-90
2022/03/30 17:59:31;;;;;;;9.60;6.57;;;15.50;79.80;;;;;;5000093;28;20423;-92
2022/03/30 18:02:00;;;;;;;6.83;6.07;;;15.50;79.90;;;;;;5029974;28;20451;-93
2022/03/30 18:04:27;;;;;;;8.13;6.57;;;15.50;79.70;;;;;;5036737;28;20431;-89
2022/03/30 18:06:56;;;;;;;7.70;6.07;;;15.50;79.70;;;;;;5042840;28;20418;-92
2022/03/30 18:09:26;;;;;;;9.20;6.50;;;15.50;79.60;;;;;;5042733;28;20436;-92
2022/03/30 18:11:56;;;;;;;11.33;6.20;;;15.50;79.70;;;;;;5019150;28;20498;-93
2022/03/30 18:14:32;;;;;;;9.77;6.80;;;15.50;79.70;;;;;;5019202;28;20469;-93
2022/03/30 18:16:59;;;;;;;11.50;8.10;;;15.40;79.70;;;;;;5016218;28;20431;-95
2022/03/30 18:19:25;;;;;;;11.60;7.80;;;15.40;79.60;;;;;;5036730;28;20729;-95
2022/03/30 18:21:51;;;;;;;10.13;7.33;;;15.40;79.50;;;;;;5019948;28;20452;-94
2022/03/30 18:24:19;;;;;;;8.80;7.00;;;15.40;79.80;;;;;;5036487;28;20420;-93